Apia, Samoa

6:43 PM WSDT on February 10, 2016 (GMT +1400)
Faleolo International | | Change Station
CLOSE
Current Station
Airport
Location: Faleolo,
Elevation: 16 ft
Nearby Weather Stations

Elev 16 ft 13.83 °S, 172.01 °W | Updated 43 minutes ago

Scattered Clouds
Scattered Clouds
91 °F
Feels Like 105 °F
N
14
Wind Variable Wind from NE

Today
High -- | Low -- °F
--% Chance of Precip.
Yesterday
High -- | Low -- °F
Precip. -- in
Pressure 29.71 in
Visibility 6.2 miles
Clouds Scattered Clouds 2300 ft
Heat Index 105 °F
Dew Point 77 °F
Humidity 63%
Rainfall 0.00 in
Snow Depth Not available.
7:23 AM 7:59 PM
Waxing Crescent, 3% visible
METAR NSFA 100400Z 05012KT 9999 SCT023 33/25 Q1006
Pressure 29.71 in
Visibility 6.2 miles
Clouds Scattered Clouds 2300 ft
Heat Index 105 °F
Dew Point 77 °F
Humidity 63%
Rainfall 0.00 in
Snow Depth Not available.
7:23 AM 7:59 PM
Waxing Crescent, 3% visible
METAR NSFA 100400Z 05012KT 9999 SCT023 33/25 Q1006

10-Day Weather Forecast

No radar image for this location.
×

Almanac

Astronomy

Feb. 10, 2016 Rise Set
Actual Time
Civil Twilight
Nautical Twilight
Astronomical Twilight
Moon
Length of Visible Light
Length of Day
Tomorrow will be .
, % of the Moon is Illuminated

Today's Extremes

Country Highs Country Lows

Community

WunderPhotos

Upload Photos

1,891,810 photos uploaded!

WunderBlog® & News

Nearby

Air Quality

  Air Quality AQ Index Pollutant
Not available.

Snow Depth

Station Depth Elevation

Earthquake Activity

City Distance Mag. Time & Date
Minimum magnitude displayed is 2.5.

Coastal Water Temperatures

Place Temperature

Stations

Nearby Weather Stations

Station Location Temp. Windchill Dew Point Humidity Wind Precip. Elev Updated Type